Time;durP1;ratioP1;P1;durP2;ratioP2;P2;SDS_P1;SDS_P2;PMS_P1;PMS_P2;Temp;Humidity;BMP_temperature;BMP_pressure;BME280_temperature;BME280_humidity;BME280_pressure;Samples;Min_cycle;Max_cycle;Signal;HPM_P1;HPM_P2
2022/06/02 00:00:19;;;;;;;26.98;19.98;;;;;;;;;;5110903;28;20389;-71
2022/06/02 00:03:00;;;;;;;27.25;20.33;;;;;;;;;;5110904;28;20056;-71
2022/06/02 00:05:34;;;;;;;27.35;19.95;;;;;;;;;;5092779;28;20062;-71
2022/06/02 00:08:05;;;;;;;28.63;20.20;;;;;;;;;;5092520;28;20081;-71
2022/06/02 00:10:41;;;;;;;32.28;22.13;;;;;;;;;;5110729;28;20035;-71
2022/06/02 00:15:54;;;;;;;29.00;20.08;;;;;;;;;;5111272;27;20404;-69
2022/06/02 00:18:27;;;;;;;31.08;22.38;;;;;;;;;;5111073;28;20035;-69
2022/06/02 00:20:56;;;;;;;27.00;20.10;;;;;;;;;;5109923;28;20118;-70
2022/06/02 00:23:41;;;;;;;29.27;21.35;;;;;;;;;;5111001;28;20040;-69
2022/06/02 00:26:26;;;;;;;29.33;19.77;;;;;;;;;;5110898;28;20110;-69
2022/06/02 00:29:00;;;;;;;25.13;19.13;;;;;;;;;;5110928;28;20035;-68
2022/06/02 00:31:46;;;;;;;29.35;21.25;;;;;;;;;;5110888;28;20527;-69
2022/06/02 00:34:17;;;;;;;26.73;20.00;;;;;;;;;;5110652;28;20027;-69
2022/06/02 00:36:47;;;;;;;26.10;19.02;;;;;;;;;;5110774;28;20589;-69
2022/06/02 00:39:15;;;;;;;28.75;19.15;;;;;;;;;;5110692;28;20431;-69
2022/06/02 00:41:43;;;;;;;28.25;19.42;;;;;;;;;;5110659;28;20059;-68
2022/06/02 00:44:20;;;;;;;26.95;20.08;;;;;;;;;;5110633;28;20371;-69
2022/06/02 00:46:49;;;;;;;28.88;22.13;;;;;;;;;;5109323;28;20027;-69
2022/06/02 00:49:19;;;;;;;27.85;20.27;;;;;;;;;;5110516;28;20028;-69
2022/06/02 00:52:05;;;;;;;29.75;20.10;;;;;;;;;;5110411;28;20026;-69
2022/06/02 00:57:44;;;;;;;28.80;21.33;;;;;;;;;;5110157;28;20030;-69
2022/06/02 01:00:12;;;;;;;29.88;21.13;;;;;;;;;;5110248;28;20030;-70
2022/06/02 01:02:45;;;;;;;30.90;21.27;;;;;;;;;;5110248;28;20028;-69
2022/06/02 01:05:11;;;;;;;36.47;23.27;;;;;;;;;;5108954;28;20077;-69
2022/06/02 01:07:46;;;;;;;30.42;21.50;;;;;;;;;;5110168;28;20414;-69
2022/06/02 01:10:32;;;;;;;33.33;22.45;;;;;;;;;;5110134;28;20031;-69
2022/06/02 01:13:13;;;;;;;30.40;20.95;;;;;;;;;;5109983;28;20058;-68
2022/06/02 01:15:46;;;;;;;31.92;21.73;;;;;;;;;;5109784;28;20040;-69
2022/06/02 01:18:17;;;;;;;34.85;23.30;;;;;;;;;;5109993;28;20476;-69
2022/06/02 01:20:49;;;;;;;36.45;24.48;;;;;;;;;;5109906;28;20028;-69
2022/06/02 01:23:26;;;;;;;35.17;24.08;;;;;;;;;;5108566;28;20034;-69
2022/06/02 01:26:12;;;;;;;33.83;22.52;;;;;;;;;;5102468;28;20028;-69
2022/06/02 01:28:57;;;;;;;33.28;22.40;;;;;;;;;;5096065;28;20028;-69
2022/06/02 01:31:39;;;;;;;33.85;23.58;;;;;;;;;;5096041;28;20110;-69
2022/06/02 01:34:25;;;;;;;36.25;23.02;;;;;;;;;;5094858;28;20436;-69
2022/06/02 01:36:59;;;;;;;35.83;22.95;;;;;;;;;;5094707;28;20115;-69
2022/06/02 01:39:45;;;;;;;33.17;23.20;;;;;;;;;;5096052;28;20024;-69
2022/06/02 01:42:17;;;;;;;35.65;25.08;;;;;;;;;;5095903;28;20024;-69
2022/06/02 01:44:52;;;;;;;37.47;24.98;;;;;;;;;;5095919;28;20039;-69
2022/06/02 01:47:21;;;;;;;36.90;24.83;;;;;;;;;;5096137;28;20107;-69
2022/06/02 01:49:54;;;;;;;43.75;25.63;;;;;;;;;;5094500;28;20028;-70
2022/06/02 01:52:40;;;;;;;37.50;24.85;;;;;;;;;;5095752;28;20035;-69
2022/06/02 01:55:26;;;;;;;38.25;24.60;;;;;;;;;;5095611;28;20028;-69
2022/06/02 01:58:01;;;;;;;37.72;23.90;;;;;;;;;;5095580;28;20387;-69
2022/06/02 02:00:31;;;;;;;37.90;24.05;;;;;;;;;;5095617;28;20367;-69
2022/06/02 02:03:03;;;;;;;36.88;23.80;;;;;;;;;;5095576;28;20034;-69
2022/06/02 02:05:48;;;;;;;34.90;23.60;;;;;;;;;;5095532;28;20474;-70
2022/06/02 02:08:35;;;;;;;35.40;22.27;;;;;;;;;;5095380;28;20028;-69
2022/06/02 02:11:10;;;;;;;38.45;24.13;;;;;;;;;;5095399;28;20107;-69
2022/06/02 02:13:55;;;;;;;34.35;23.13;;;6.50;99.90;;;;;;5093893;28;20078;-69
2022/06/02 02:16:49;;;;;;;33.67;22.17;;;6.60;99.90;;;;;;5095203;28;20017;-69
2022/06/02 02:19:43;;;;;;;32.88;21.20;;;6.50;99.90;;;;;;5095012;28;20024;-69
2022/06/02 02:22:48;;;;;;;32.63;21.88;;;6.40;99.90;;;;;;5095043;28;20020;-69
2022/06/02 02:25:26;;;;;;;34.10;22.35;;;6.40;99.90;;;;;;5094873;28;20477;-69
2022/06/02 02:28:15;;;;;;;37.20;22.73;;;6.40;99.90;;;;;;5093869;28;20031;-70
2022/06/02 02:30:53;;;;;;;31.17;20.33;;;6.30;99.90;;;;;;5093481;28;20036;-69
2022/06/02 02:33:39;;;;;;;31.15;20.77;;;;;;;;;;5093817;28;20027;-69
2022/06/02 02:36:23;;;;;;;36.92;22.50;;;6.20;99.90;;;;;;5094814;28;20080;-70
2022/06/02 02:38:59;;;;;;;34.13;23.30;;;6.20;99.90;;;;;;5093832;28;20385;-69
2022/06/02 02:41:36;;;;;;;33.22;21.92;;;6.20;99.90;;;;;;5076554;28;20606;-69
2022/06/02 02:44:27;;;;;;;30.10;21.30;;;6.10;99.90;;;;;;5094780;28;20367;-70
2022/06/02 02:47:20;;;;;;;33.40;21.30;;;6.10;99.90;;;;;;5094639;28;20035;-69
2022/06/02 02:50:14;;;;;;;32.88;21.73;;;6.10;99.90;;;;;;5094621;28;20024;-69
2022/06/02 02:52:45;;;;;;;;;;;6.00;99.90;;;;;;5094944;28;20079;-69
2022/06/02 02:55:34;;;;;;;28.88;19.20;;;6.00;99.90;;;;;;5094398;28;19915;-69
2022/06/02 02:58:16;;;;;;;33.47;22.08;;;5.80;99.90;;;;;;5094370;28;20454;-69
2022/06/02 03:00:59;;;;;;;32.78;22.33;;;5.80;99.90;;;;;;5094695;28;20523;-70
2022/06/02 03:03:41;;;;;;;34.28;22.63;;;5.80;99.90;;;;;;5094481;28;20047;-70
2022/06/02 03:06:20;;;;;;;33.15;21.88;;;5.80;99.90;;;;;;5092951;28;20030;-69
2022/06/02 03:08:58;;;;;;;35.72;23.33;;;5.80;99.90;;;;;;5094258;28;20052;-69
2022/06/02 03:11:39;;;;;;;34.80;22.80;;;5.80;99.90;;;;;;5094192;28;20055;-69
2022/06/02 03:14:32;;;;;;;34.65;22.83;;;5.70;99.90;;;;;;5093951;28;20547;-69
2022/06/02 03:17:13;;;;;;;36.57;23.37;;;5.80;99.90;;;;;;5094014;28;20470;-69
2022/06/02 03:19:55;;;;;;;38.70;24.42;;;5.80;99.90;;;;;;5094051;28;20017;-70
2022/06/02 03:22:37;;;;;;;37.30;24.10;;;5.80;99.90;;;;;;5092865;28;20020;-69
2022/06/02 03:25:13;;;;;;;47.03;29.07;;;5.80;99.90;;;;;;5092806;28;20034;-70
2022/06/02 03:27:53;;;;;;;40.22;25.45;;;5.80;99.90;;;;;;5093950;28;20016;-69
2022/06/02 03:30:23;;;;;;;39.05;24.83;;;5.80;99.90;;;;;;5093859;28;20114;-69
2022/06/02 03:33:14;;;;;;;39.53;25.70;;;5.80;99.90;;;;;;5092507;28;20024;-69
2022/06/02 03:35:53;;;;;;;37.92;24.17;;;5.80;99.90;;;;;;5093465;28;20066;-69
2022/06/02 03:38:44;;;;;;;45.28;29.02;;;5.90;99.90;;;;;;5093729;28;20032;-70
2022/06/02 03:41:36;;;;;;;51.35;29.52;;;6.00;99.90;;;;;;5093509;28;20036;-69
2022/06/02 03:44:25;;;;;;;42.35;27.40;;;6.00;99.90;;;;;;5093490;28;20390;-69
2022/06/02 03:47:31;;;;;;;43.45;26.95;;;6.10;99.90;;;;;;5093561;28;20059;-69
2022/06/02 03:50:25;;;;;;;45.63;28.75;;;6.10;99.90;;;;;;5093179;28;20020;-69
2022/06/02 03:53:27;;;;;;;47.05;29.10;;;6.20;99.90;;;;;;5093365;28;20028;-70
2022/06/02 03:56:06;;;;;;;49.45;30.42;;;6.30;99.90;;;;;;5093265;28;20035;-69
2022/06/02 03:58:59;;;;;;;48.70;30.73;;;6.30;99.90;;;;;;5093484;28;20111;-69
2022/06/02 04:01:29;;;;;;;53.08;32.45;;;6.40;99.90;;;;;;5093226;28;20020;-69
2022/06/02 04:04:23;;;;;;;44.88;29.42;;;6.50;99.90;;;;;;5093315;28;20393;-69
2022/06/02 04:07:28;;;;;;;48.05;28.83;;;6.50;99.90;;;;;;5092029;28;20143;-70
2022/06/02 04:15:57;;;;;;;56.33;33.45;;;6.90;99.90;;;;;;5070303;28;20087;-69
2022/06/02 04:18:57;;;;;;;58.97;33.75;;;7.00;99.90;;;;;;5070405;28;20035;-69
2022/06/02 04:21:43;;;;;;;57.05;33.35;;;7.10;99.90;;;;;;5070240;28;20044;-69
2022/06/02 04:24:33;;;;;;;57.50;33.78;;;7.30;99.90;;;;;;5053433;28;20028;-69
2022/06/02 04:27:23;;;;;;;53.05;33.25;;;7.70;99.90;;;;;;5068925;28;20020;-69
2022/06/02 04:30:15;;;;;;;48.72;32.10;;;8.30;99.90;;;;;;5068807;28;20494;-68
2022/06/02 04:33:09;;;;;;;52.05;33.83;;;8.60;99.90;;;;;;5069956;28;20119;-69
2022/06/02 04:36:03;;;;;;;47.03;32.63;;;9.00;99.90;;;;;;5085743;28;20147;-68
2022/06/02 04:38:49;;;;;;;35.58;24.65;;;10.30;99.90;;;;;;5070066;28;20025;-68
2022/06/02 04:41:40;;;;;;;27.23;19.05;;;11.60;99.90;;;;;;5068689;28;20120;-68
2022/06/02 04:44:45;;;;;;;18.17;15.85;;;12.40;99.90;;;;;;5069911;28;20491;-68
2022/06/02 04:47:51;;;;;;;18.23;16.27;;;12.50;99.90;;;;;;5069742;28;20021;-68
2022/06/02 04:50:40;;;;;;;19.65;17.15;;;12.00;99.90;;;;;;5069600;28;20068;-68
2022/06/02 04:53:37;;;;;;;18.55;16.55;;;12.00;99.90;;;;;;5068700;28;20032;-68
2022/06/02 04:56:13;;;;;;;18.08;16.13;;;12.40;99.90;;;;;;5068696;28;20051;-68
2022/06/02 04:59:07;;;;;;;18.67;15.40;;;12.80;99.90;;;;;;5068444;28;20028;-68
2022/06/02 05:02:00;;;;;;;16.70;14.90;;;12.80;99.90;;;;;;5069513;28;20458;-68
2022/06/02 05:08:04;;;;;;;18.75;15.05;;;13.00;99.90;;;;;;5090720;28;20386;-68
2022/06/02 05:10:53;;;;;;;17.52;15.52;;;13.40;99.90;;;;;;5090511;28;20081;-68
2022/06/02 05:13:58;;;;;;;17.92;16.02;;;13.60;99.90;;;;;;5089414;28;20028;-68
2022/06/02 05:16:47;;;;;;;18.17;15.25;;;13.60;99.90;;;;;;5090512;28;20023;-68
2022/06/02 05:22:25;;;;;;;19.70;15.38;;;13.70;99.90;;;;;;5111166;27;20401;-68
2022/06/02 05:25:21;;;;;;;15.30;13.73;;;14.30;99.90;;;;;;5111092;28;20108;-69
2022/06/02 05:28:14;;;;;;;15.73;14.02;;;15.20;99.90;;;;;;5110813;28;20059;-68
2022/06/02 05:31:19;;;;;;;18.33;15.40;;;15.30;99.90;;;;;;5110892;28;20440;-69
2022/06/02 05:34:12;;;;;;;20.52;16.33;;;14.80;99.90;;;;;;5109390;28;20077;-69
2022/06/02 05:37:02;;;;;;;20.92;17.15;;;14.60;99.90;;;;;;5109687;28;20038;-68
2022/06/02 05:40:07;;;;;;;19.90;16.25;;;15.10;99.90;;;;;;5109479;28;20054;-68
2022/06/02 05:42:46;;;;;;;17.98;14.93;;;15.10;99.90;;;;;;5110596;28;20114;-69
2022/06/02 05:45:35;;;;;;;17.05;15.27;;;15.40;99.90;;;;;;5109523;28;20074;-69
2022/06/02 05:48:24;;;;;;;18.85;15.68;;;15.70;99.90;;;;;;5092359;28;20473;-69
2022/06/02 05:51:18;;;;;;;17.77;15.30;;;16.10;99.90;;;;;;5109224;28;20468;-69
2022/06/02 05:54:24;;;;;;;16.65;14.07;;;16.30;99.90;;;;;;5110510;28;20480;-69
2022/06/02 05:57:10;;;;;;;17.63;14.75;;;17.20;99.90;;;;;;5109035;28;20024;-70
2022/06/02 05:59:57;;;;;;;15.45;14.00;;;17.40;99.90;;;;;;5110347;28;20020;-69
2022/06/02 06:02:51;;;;;;;18.15;15.75;;;17.30;99.90;;;;;;5110337;28;20449;-69
2022/06/02 06:05:36;;;;;;;;;;;17.50;99.90;;;;;;5106122;27;20065;-69
2022/06/02 06:08:14;;;;;;;17.00;13.93;;;18.10;99.90;;;;;;5098737;28;19943;-70
2022/06/02 06:11:12;;;;;;;18.38;15.20;;;18.30;99.90;;;;;;5106499;28;20027;-70
2022/06/02 06:13:52;;;;;;;16.10;14.48;;;17.90;99.90;;;;;;5088328;28;20025;-70
2022/06/02 06:16:27;;;;;;;16.25;14.70;;;18.40;99.90;;;;;;5105055;28;20027;-70
2022/06/02 06:19:32;;;;;;;16.55;14.68;;;18.80;99.90;;;;;;5108103;28;20489;-69
2022/06/02 06:22:36;;;;;;;17.73;14.23;;;18.10;99.90;;;;;;5109519;28;20101;-70
2022/06/02 06:28:19;;;;;;;17.75;14.73;;;18.90;99.90;;;;;;5111029;27;20311;-69
2022/06/02 06:31:01;;;;;;;17.50;13.75;;;19.40;99.90;;;;;;5109775;28;20508;-69
2022/06/02 06:33:51;;;;;;;17.00;13.88;;;19.50;99.90;;;;;;5109259;28;20024;-69
2022/06/02 06:36:48;;;;;;;19.67;15.30;;;18.80;99.90;;;;;;5118596;28;20403;-68
2022/06/02 06:39:29;;;;;;;19.30;14.77;;;18.50;99.90;;;;;;5090472;28;20103;-69
2022/06/02 06:42:35;;;;;;;15.68;14.13;;;18.80;99.90;;;;;;5083060;28;20027;-69
2022/06/02 06:45:15;;;;;;;20.25;15.30;;;17.90;99.90;;;;;;5109584;28;20069;-69
2022/06/02 06:47:45;;;;;;;23.15;15.25;;;17.60;99.90;;;;;;5110774;28;20535;-69
2022/06/02 06:50:21;;;;;;;17.17;13.52;;;17.30;99.90;;;;;;5110834;28;20020;-69
2022/06/02 06:53:03;;;;;;;17.60;13.52;;;17.70;99.90;;;;;;5110119;28;20027;-69
2022/06/02 06:55:57;;;;;;;14.80;13.35;;;17.70;99.90;;;;;;5092253;28;20096;-69
2022/06/02 06:58:58;;;;;;;14.25;11.80;;;17.80;99.90;;;;;;5110438;28;20115;-69
2022/06/02 07:01:38;;;;;;;16.58;12.95;;;17.00;99.90;;;;;;5109192;28;20537;-69
2022/06/02 07:04:43;;;;;;;18.88;13.05;;;16.00;99.90;;;;;;5110596;28;20023;-69
2022/06/02 07:07:22;;;;;;;17.73;13.27;;;15.40;99.90;;;;;;5108892;28;20119;-69
2022/06/02 07:09:57;;;;;;;18.95;15.00;;;14.70;99.90;;;;;;5109116;28;20016;-69
2022/06/02 07:12:55;;;;;;;15.25;13.27;;;14.50;99.90;;;;;;5110422;28;20028;-69
2022/06/02 07:15:47;;;;;;;17.90;14.93;;;14.40;99.90;;;;;;5110433;28;20094;-69
2022/06/02 07:18:24;;;;;;;15.43;12.85;;;14.40;99.90;;;;;;5101581;28;20473;-69
2022/06/02 07:21:16;;;;;;;15.27;12.27;;;14.30;99.90;;;;;;5105560;28;20029;-69
2022/06/02 07:24:21;;;;;;;14.50;10.90;;;14.80;99.90;;;;;;5098311;28;20495;-69
2022/06/02 07:27:01;;;;;;;10.45;9.07;;;16.10;99.90;;;;;;5088032;28;20045;-69
2022/06/02 07:30:03;;;;;;;13.13;8.95;;;17.50;99.90;;;;;;5097484;28;20028;-70
2022/06/02 07:33:02;;;;;;;10.30;8.15;;;18.00;99.90;;;;;;5093607;28;20533;-70
2022/06/02 07:35:56;;;;;;;12.60;8.93;;;17.50;99.90;;;;;;5105178;28;20021;-69
2022/06/02 07:38:47;;;;;;;10.07;9.02;;;17.80;99.90;;;;;;5080942;28;20024;-70
2022/06/02 07:41:32;;;;;;;9.80;8.27;;;18.30;99.90;;;;;;5075642;28;20034;-70
2022/06/02 07:44:24;;;;;;;12.18;9.30;;;19.30;99.90;;;;;;5075000;28;20123;-69
2022/06/02 07:47:10;;;;;;;8.73;7.78;;;;;;;;;;5086118;28;20058;-69
2022/06/02 07:49:56;;;;;;;9.75;7.88;;;;;;;;;;5087849;28;20017;-69
2022/06/02 07:52:51;;;;;;;7.07;6.13;;;21.00;99.90;;;;;;5095488;28;20027;-69
2022/06/02 07:55:41;;;;;;;9.88;6.93;;;21.60;99.90;;;;;;5093762;28;20023;-70
2022/06/02 07:58:34;;;;;;;7.15;6.45;;;22.00;99.30;;;;;;5093792;28;20024;-70
2022/06/02 08:01:11;;;;;;;7.82;6.82;;;20.80;99.90;;;;;;5075750;28;20020;-69
2022/06/02 08:06:50;;;;;;;6.45;5.85;;;20.10;99.90;;;;;;5111384;27;20311;-70
2022/06/02 08:09:35;;;;;;;9.35;6.53;;;21.50;99.70;;;;;;5110467;28;20081;-70
2022/06/02 08:12:11;;;;;;;8.63;6.70;;;21.30;98.60;;;;;;5109973;28;20046;-69
2022/06/02 08:15:12;;;;;;;8.75;6.78;;;20.80;99.80;;;;;;5110330;28;20028;-69
2022/06/02 08:17:49;;;;;;;6.97;6.28;;;20.40;99.90;;;;;;5093107;28;20020;-69
2022/06/02 08:20:43;;;;;;;9.40;7.22;;;21.20;99.90;;;;;;5110137;28;20114;-70
2022/06/02 08:23:35;;;;;;;9.38;8.18;;;19.30;99.90;;;;;;5110216;28;20516;-70
2022/06/02 08:26:12;;;;;;;13.90;9.02;;;17.80;99.90;;;;;;5110067;28;20042;-70
2022/06/02 08:29:17;;;;;;;9.48;8.57;;;16.60;99.90;;;;;;5110855;28;20028;-69
2022/06/02 08:32:23;;;;;;;9.65;8.73;;;16.00;99.90;;;;;;5110690;28;20107;-69
2022/06/02 08:35:04;;;;;;;9.35;7.50;;;16.00;99.90;;;;;;5110730;28;20030;-69
2022/06/02 08:37:47;;;;;;;7.53;6.82;;;16.00;99.90;;;;;;5104517;28;20470;-69
2022/06/02 08:40:39;;;;;;;7.57;6.47;;;17.80;99.90;;;;;;5110779;28;20111;-70
2022/06/02 08:43:45;;;;;;;5.60;5.10;;;19.40;99.90;;;;;;5110204;28;20102;-71
2022/06/02 08:49:34;;;;;;;7.22;5.85;;;21.30;98.10;;;;;;5111179;27;20400;-71
2022/06/02 08:52:29;;;;;;;6.97;5.70;;;22.30;90.60;;;;;;5109811;28;20115;-71
2022/06/02 08:55:34;;;;;;;6.38;5.78;;;22.60;92.20;;;;;;5104392;28;20048;-71
2022/06/02 08:58:27;;;;;;;6.53;5.38;;;21.60;92.40;;;;;;5090498;28;20113;-71
2022/06/02 09:01:32;;;;;;;5.97;5.10;;;20.90;94.80;;;;;;5109696;28;20363;-71
2022/06/02 09:04:27;;;;;;;6.13;5.20;;;21.30;92.50;;;;;;5110632;28;20444;-72
2022/06/02 09:07:18;;;;;;;6.10;5.50;;;21.20;91.50;;;;;;5110629;28;20477;-72
2022/06/02 09:10:24;;;;;;;6.22;5.07;;;22.40;91.60;;;;;;5104561;28;20023;-71
2022/06/02 09:13:29;;;;;;;7.38;5.05;;;23.10;91.10;;;;;;5109270;28;20027;-72
2022/06/02 09:19:11;;;;;;;6.70;6.10;;;22.80;91.50;;;;;;5111741;27;20355;-72
2022/06/02 09:22:14;;;;;;;7.38;6.55;;;21.30;94.80;;;;;;5111479;28;20103;-73
2022/06/02 09:25:13;;;;;;;7.22;6.32;;;20.60;97.00;;;;;;5099588;28;20051;-73
2022/06/02 09:30:57;;;;;;;6.60;6.00;;;20.60;92.80;;;;;;5106119;27;20942;-72
2022/06/02 09:34:02;;;;;;;5.95;5.43;;;21.60;93.80;;;;;;5091676;28;20036;-71
2022/06/02 09:36:59;;;;;;;5.88;4.78;;;21.60;93.70;;;;;;5075663;28;20030;-71
2022/06/02 09:39:52;;;;;;;7.03;5.30;;;22.80;92.30;;;;;;5089172;28;20390;-72
2022/06/02 09:42:42;;;;;;;5.20;4.70;;;23.40;82.50;;;;;;5093012;28;20131;-72
2022/06/02 09:45:38;;;;;;;6.65;4.90;;;23.50;82.70;;;;;;5086997;28;20100;-71
2022/06/02 09:48:35;;;;;;;5.15;3.78;;;23.60;80.60;;;;;;5090219;28;20024;-72
2022/06/02 09:51:40;;;;;;;4.65;3.58;;;25.00;79.30;;;;;;5089851;28;20036;-71
2022/06/02 09:54:34;;;;;;;3.75;3.45;;;25.10;76.50;;;;;;5090227;28;20023;-73
2022/06/02 09:57:59;;;;;;;4.72;3.65;;;24.60;74.40;;;;;;5089005;28;20105;-71
2022/06/02 10:00:38;;;;;;;4.43;4.03;;;23.80;71.60;;;;;;5089976;28;20024;-72
2022/06/02 10:06:52;;;;;;;7.32;5.72;;;21.90;82.40;;;;;;5088272;28;20694;-71
2022/06/02 10:09:44;;;;;;;7.05;5.82;;;20.60;92.30;;;;;;5085105;28;20031;-71
2022/06/02 10:13:04;;;;;;;6.82;6.13;;;19.80;95.30;;;;;;5084473;28;20452;-71
2022/06/02 10:15:40;;;;;;;6.53;6.00;;;19.40;98.00;;;;;;5089375;28;20021;-70
2022/06/02 10:18:46;;;;;;;7.65;6.50;;;19.20;97.90;;;;;;5089057;28;20093;-70
2022/06/02 10:21:38;;;;;;;7.20;6.28;;;19.60;98.10;;;;;;5089972;28;20428;-70
2022/06/02 10:24:34;;;;;;;6.60;5.90;;;20.00;95.10;;;;;;5090193;28;20024;-71
2022/06/02 10:27:18;;;;;;;6.38;5.70;;;20.80;94.10;;;;;;5090321;28;20020;-70
2022/06/02 10:30:23;;;;;;;6.38;5.78;;;20.80;91.00;;;;;;5090368;28;20100;-70
2022/06/02 10:33:28;;;;;;;7.47;5.30;;;20.80;90.30;;;;;;5090004;28;20386;-70
2022/06/02 10:36:33;;;;;;;5.63;4.43;;;21.20;91.80;;;;;;5089607;28;20028;-70
2022/06/02 10:39:25;;;;;;;4.65;4.07;;;22.10;84.60;;;;;;5090063;28;20036;-71
2022/06/02 10:45:18;;;;;;;4.78;4.38;;;22.80;83.50;;;;;;5090715;27;20303;-71
2022/06/02 10:48:24;;;;;;;5.20;4.70;;;22.30;79.30;;;;;;5090846;28;20024;-71
2022/06/02 10:51:29;;;;;;;5.65;4.30;;;22.30;75.70;;;;;;5089069;28;20421;-69
2022/06/02 10:54:34;;;;;;;5.43;5.00;;;21.50;78.00;;;;;;5089952;28;20064;-71
2022/06/02 10:57:21;;;;;;;4.97;4.47;;;20.60;87.50;;;;;;5085092;28;20405;-70
2022/06/02 11:00:26;;;;;;;4.50;3.92;;;20.10;86.60;;;;;;5084282;28;20025;-71
2022/06/02 11:03:32;;;;;;;4.57;4.18;;;20.60;89.90;;;;;;5086277;28;20028;-71
2022/06/02 11:06:37;;;;;;;4.38;3.97;;;21.20;89.00;;;;;;5087291;28;20012;-70
2022/06/02 11:09:38;;;;;;;3.70;3.40;;;20.50;81.60;;;;;;5087684;28;20020;-70
2022/06/02 11:12:34;;;;;;;3.90;3.60;;;20.90;84.20;;;;;;5081176;28;20505;-70
2022/06/02 11:15:39;;;;;;;4.80;3.63;;;20.80;78.70;;;;;;5084571;28;20023;-71
2022/06/02 11:18:44;;;;;;;6.13;4.13;;;21.00;83.30;;;;;;5087980;28;20056;-71
2022/06/02 11:21:49;;;;;;;5.30;4.43;;;21.30;90.10;;;;;;5088492;28;20028;-71
2022/06/02 11:24:55;;;;;;;5.18;4.38;;;21.30;85.70;;;;;;5087587;28;20077;-71
2022/06/02 11:27:50;;;;;;;6.20;3.95;;;21.50;86.10;;;;;;5088225;28;20520;-71
2022/06/02 11:30:52;;;;;;;7.18;3.80;;;21.20;85.10;;;;;;5082034;28;20379;-71
2022/06/02 11:33:50;;;;;;;4.32;3.70;;;21.00;85.00;;;;;;5071897;28;20016;-71
2022/06/02 11:39:31;;;;;;;3.75;3.45;;;20.30;82.40;;;;;;5100878;27;20451;-73
2022/06/02 11:42:16;;;;;;;6.45;4.80;;;20.70;88.20;;;;;;5086213;28;20087;-73
2022/06/02 11:45:21;;;;;;;8.07;4.63;;;20.60;83.90;;;;;;5086966;28;20025;-72
2022/06/02 11:48:09;;;;;;;6.80;4.32;;;20.50;88.70;;;;;;5071152;28;20104;-73
2022/06/02 11:51:14;;;;;;;4.93;4.45;;;20.80;82.90;;;;;;5052881;28;20443;-72
2022/06/02 11:53:57;;;;;;;5.25;4.00;;;20.80;82.70;;;;;;5068942;28;20185;-72
2022/06/02 11:56:46;;;;;;;3.97;3.58;;;21.30;85.80;;;;;;5069139;28;20051;-71
2022/06/02 11:59:48;;;;;;;4.90;3.63;;;21.70;81.90;;;;;;5070237;28;20086;-73
2022/06/02 12:02:49;;;;;;;4.53;3.85;;;21.80;76.10;;;;;;5069179;28;20025;-71
2022/06/02 12:05:30;;;;;;;4.97;3.90;;;21.40;80.10;;;;;;5068892;28;20540;-72
2022/06/02 12:08:30;;;;;;;5.22;4.10;;;21.40;81.70;;;;;;5070263;28;20020;-72
2022/06/02 12:11:26;;;;;;;5.75;4.43;;;21.40;86.20;;;;;;5054969;28;20454;-72
2022/06/02 12:14:19;;;;;;;5.93;3.55;;;21.10;82.20;;;;;;5069051;28;20024;-71
2022/06/02 12:17:16;;;;;;;3.88;3.58;;;21.60;86.90;;;;;;5088709;28;20020;-71
2022/06/02 12:20:09;;;;;;;4.07;3.55;;;22.00;84.00;;;;;;5088998;28;20085;-72
2022/06/02 12:22:53;;;;;;;5.23;3.80;;;22.20;81.80;;;;;;5090306;28;20017;-72
2022/06/02 12:25:47;;;;;;;3.70;3.40;;;22.40;73.10;;;;;;5089301;28;20276;-72
2022/06/02 12:28:44;;;;;;;3.78;3.47;;;22.20;76.50;;;;;;5090198;28;20024;-72
2022/06/02 12:31:24;;;;;;;3.90;3.58;;;22.20;72.80;;;;;;5089054;28;20024;-73
2022/06/02 12:34:18;;;;;;;4.50;3.63;;;22.00;70.90;;;;;;5089552;28;20539;-72
2022/06/02 12:37:15;;;;;;;3.35;3.03;;;21.90;74.60;;;;;;5089497;28;20032;-72
2022/06/02 12:39:59;;;;;;;4.43;4.03;;;21.90;78.20;;;;;;5085739;28;20031;-71
2022/06/02 12:45:37;;;;;;;4.10;3.70;;;21.40;76.20;;;;;;5070409;28;20346;-70
2022/06/02 12:48:43;;;;;;;3.97;3.30;;;21.60;75.50;;;;;;5068977;28;20057;-69
2022/06/02 12:51:39;;;;;;;4.45;4.05;;;21.60;77.10;;;;;;5068949;28;20017;-70
2022/06/02 12:54:44;;;;;;;4.45;3.40;;;21.40;75.70;;;;;;5064554;28;20061;-69
2022/06/02 12:57:49;;;;;;;3.47;2.80;;;21.00;76.00;;;;;;5065691;28;20090;-69
2022/06/02 13:00:31;;;;;;;2.80;2.60;;;20.80;80.70;;;;;;5070165;28;20017;-69
2022/06/02 13:03:35;;;;;;;4.07;3.20;;;20.90;80.60;;;;;;5069098;28;20055;-70
2022/06/02 13:06:41;;;;;;;5.07;3.20;;;20.80;80.60;;;;;;5069966;28;20111;-71
2022/06/02 13:09:30;;;;;;;4.70;4.20;;;20.60;77.40;;;;;;5056520;28;20045;-71
2022/06/02 13:12:21;;;;;;;4.38;3.97;;;20.30;78.80;;;;;;5054099;28;20529;-71
2022/06/02 13:15:06;;;;;;;4.00;3.60;;;20.10;79.00;;;;;;5069722;28;20029;-70
2022/06/02 13:17:47;;;;;;;4.30;3.40;;;20.50;80.60;;;;;;5068486;28;20490;-70
2022/06/02 13:20:27;;;;;;;4.97;3.55;;;21.30;82.50;;;;;;5063575;28;20029;-70
2022/06/02 13:23:14;;;;;;;4.38;3.10;;;21.40;73.90;;;;;;5052583;28;20439;-71
2022/06/02 13:26:12;;;;;;;4.13;3.72;;;21.80;79.10;;;;;;5046276;28;20022;-71
2022/06/02 13:29:18;;;;;;;4.25;3.78;;;21.40;76.20;;;;;;5060268;28;20108;-70
2022/06/02 13:32:02;;;;;;;4.45;3.85;;;21.70;78.80;;;;;;5069099;28;20033;-71
2022/06/02 13:35:05;;;;;;;3.80;3.40;;;21.70;75.60;;;;;;5064602;28;20465;-70
2022/06/02 13:38:01;;;;;;;6.88;4.80;;;21.50;79.60;;;;;;5058813;28;20025;-70
2022/06/02 13:40:45;;;;;;;4.10;3.70;;;21.30;74.80;;;;;;5068091;28;20082;-72
2022/06/02 13:43:50;;;;;;;5.43;3.53;;;21.30;76.10;;;;;;5067865;28;20041;-72
2022/06/02 13:46:56;;;;;;;4.25;3.78;;;21.20;74.20;;;;;;5068708;28;20159;-70
2022/06/02 13:50:01;;;;;;;5.47;4.30;;;20.70;75.00;;;;;;5069052;28;20020;-70
2022/06/02 13:52:57;;;;;;;6.57;3.90;;;20.40;76.40;;;;;;5066698;28;20593;-72
2022/06/02 13:59:11;;;;;;;5.50;3.67;;;19.70;75.60;;;;;;5055662;28;20025;-71
2022/06/02 14:01:51;;;;;;;3.83;3.50;;;19.70;77.60;;;;;;5055671;28;20237;-71
2022/06/02 14:04:48;;;;;;;7.07;3.33;;;20.30;80.00;;;;;;5053764;28;20024;-71
2022/06/02 14:07:43;;;;;;;3.58;3.28;;;20.70;76.70;;;;;;5058812;28;20022;-71
2022/06/02 14:10:43;;;;;;;4.85;4.38;;;21.00;76.80;;;;;;5053212;28;20036;-71
2022/06/02 14:13:33;;;;;;;4.40;4.00;;;21.10;78.70;;;;;;5054532;28;20025;-71
2022/06/02 14:16:26;;;;;;;4.90;3.75;;;21.00;80.00;;;;;;5054526;28;20368;-71
2022/06/02 14:19:21;;;;;;;5.50;3.85;;;21.00;80.00;;;;;;5052566;28;20033;-71
2022/06/02 14:22:18;;;;;;;5.18;4.55;;;20.80;75.80;;;;;;5041306;28;20310;-71
2022/06/02 14:25:02;;;;;;;5.45;4.28;;;20.60;76.90;;;;;;5048626;28;20082;-72
2022/06/02 14:27:43;;;;;;;4.60;3.88;;;20.50;74.80;;;;;;5053991;28;20082;-71
2022/06/02 14:30:15;;;;;;;3.53;3.25;;;20.40;77.10;;;;;;5053707;28;20021;-71
2022/06/02 14:33:06;;;;;;;4.75;4.07;;;20.30;81.40;;;;;;5037384;28;20021;-71
2022/06/02 14:36:02;;;;;;;4.43;3.88;;;20.20;77.70;;;;;;5054870;28;20029;-71
2022/06/02 14:39:08;;;;;;;5.22;4.13;;;20.20;80.90;;;;;;5053611;28;20029;-71
2022/06/02 14:42:05;;;;;;;3.80;3.40;;;20.30;78.90;;;;;;5053774;28;20025;-71
2022/06/02 14:44:41;;;;;;;4.18;3.78;;;20.60;77.80;;;;;;5053508;28;20041;-71
2022/06/02 14:47:41;;;;;;;4.13;3.65;;;20.90;79.60;;;;;;5055020;28;20021;-71
2022/06/02 14:50:28;;;;;;;5.82;3.55;;;21.30;80.40;;;;;;5054854;28;20407;-71
2022/06/02 14:53:27;;;;;;;4.75;3.22;;;21.20;76.80;;;;;;5054823;28;20467;-71
2022/06/02 14:56:19;;;;;;;5.28;3.50;;;21.20;78.40;;;;;;5054725;28;20025;-71
2022/06/02 14:59:16;;;;;;;3.83;3.42;;;21.10;76.90;;;;;;5054672;28;20033;-71
2022/06/02 15:02:18;;;;;;;4.30;3.83;;;21.00;78.10;;;;;;5054643;28;20021;-71
2022/06/02 15:05:12;;;;;;;4.75;3.55;;;20.50;77.70;;;;;;5053369;28;20491;-71
2022/06/02 15:08:08;;;;;;;4.18;3.78;;;20.30;78.60;;;;;;5052298;28;20032;-71
2022/06/02 15:11:02;;;;;;;3.88;3.30;;;20.10;77.00;;;;;;5053448;28;20107;-71
2022/06/02 15:13:58;;;;;;;3.40;3.10;;;20.30;76.50;;;;;;5053766;28;20132;-71
2022/06/02 15:17:01;;;;;;;6.25;3.58;;;20.50;76.40;;;;;;5053099;28;20031;-71
2022/06/02 15:20:07;;;;;;;4.03;3.70;;;20.50;74.00;;;;;;5054251;28;20017;-71
2022/06/02 15:23:12;;;;;;;11.55;8.80;;;20.40;74.40;;;;;;5052915;28;20025;-71
2022/06/02 15:25:49;;;;;;;40.10;31.90;;;20.50;74.90;;;;;;5052535;28;20028;-71
2022/06/02 15:28:54;;;;;;;4.28;3.88;;;20.50;76.70;;;;;;5053125;28;20029;-71
2022/06/02 15:31:31;;;;;;;4.18;3.78;;;20.80;79.40;;;;;;5052767;28;20491;-71
2022/06/02 15:34:25;;;;;;;4.15;3.67;;;21.10;76.50;;;;;;5052827;28;20100;-71
2022/06/02 15:37:22;;;;;;;4.53;4.13;;;21.20;74.50;;;;;;5052659;28;20385;-71
2022/06/02 15:40:10;;;;;;;3.80;3.40;;;21.20;74.00;;;;;;5036033;28;20032;-71